createdAt,value
2023-05-14T00:02:22.909Z,14.90
2023-05-14T00:04:50.600Z,14.87
2023-05-14T00:07:18.375Z,15.05
2023-05-14T00:09:46.233Z,14.93
2023-05-14T00:12:13.992Z,14.43
2023-05-14T00:14:41.742Z,14.66
2023-05-14T00:17:09.503Z,14.85
2023-05-14T00:19:41.807Z,14.99
2023-05-14T00:22:09.707Z,15.00
2023-05-14T00:24:38.129Z,14.98
2023-05-14T00:27:06.523Z,15.12
2023-05-14T00:29:34.209Z,15.19
2023-05-14T00:32:01.966Z,14.96
2023-05-14T00:34:29.683Z,15.09
2023-05-14T00:36:58.779Z,14.90
2023-05-14T00:39:26.608Z,14.96
2023-05-14T00:41:54.387Z,14.83
2023-05-14T00:44:22.077Z,14.45
2023-05-14T00:46:49.969Z,14.74
2023-05-14T00:49:18.614Z,14.81
2023-05-14T00:51:47.098Z,14.99
2023-05-14T00:54:17.799Z,14.90
2023-05-14T00:56:46.752Z,14.83
2023-05-14T00:59:14.758Z,14.82
2023-05-14T01:01:42.573Z,14.32
2023-05-14T01:04:11.629Z,14.58
2023-05-14T01:06:48.430Z,14.53
2023-05-14T01:09:24.015Z,14.70
2023-05-14T01:11:56.972Z,14.79
2023-05-14T01:14:34.329Z,14.85
2023-05-14T01:17:06.137Z,14.93
2023-05-14T01:19:40.558Z,15.23
2023-05-14T01:22:09.882Z,15.44
2023-05-14T01:24:37.762Z,15.35
2023-05-14T01:27:10.895Z,15.25
2023-05-14T01:29:41.576Z,15.21
2023-05-14T01:32:10.269Z,15.11
2023-05-14T01:34:40.986Z,15.11
2023-05-14T01:37:12.872Z,15.16
2023-05-14T01:39:43.536Z,14.86
2023-05-14T01:42:11.912Z,15.20
2023-05-14T01:44:39.598Z,15.01
2023-05-14T01:47:07.334Z,14.97
2023-05-14T01:49:35.018Z,14.89
2023-05-14T01:52:02.758Z,14.81
2023-05-14T01:54:31.900Z,15.33
2023-05-14T01:56:59.634Z,15.45
2023-05-14T01:59:29.429Z,15.59
2023-05-14T02:01:57.234Z,15.72
2023-05-14T02:04:24.996Z,15.34
2023-05-14T02:06:52.812Z,15.18
2023-05-14T02:09:20.536Z,15.40
2023-05-14T02:11:49.686Z,15.62
2023-05-14T02:14:17.386Z,15.71
2023-05-14T02:16:45.164Z,15.79
2023-05-14T02:19:12.962Z,15.52
2023-05-14T02:21:41.116Z,15.75
2023-05-14T02:24:09.149Z,15.63
2023-05-14T02:26:36.853Z,15.48
2023-05-14T02:29:05.916Z,15.41
2023-05-14T02:31:33.673Z,15.63
2023-05-14T02:34:02.407Z,15.70
2023-05-14T02:36:30.117Z,15.27
2023-05-14T02:39:01.047Z,15.54
2023-05-14T02:41:28.975Z,15.50
2023-05-14T02:43:56.715Z,15.39
2023-05-14T02:46:25.876Z,15.49
2023-05-14T02:48:53.608Z,15.55
2023-05-14T02:51:21.922Z,15.63
2023-05-14T02:53:50.042Z,15.63
2023-05-14T02:56:17.702Z,15.47
2023-05-14T02:58:45.417Z,15.67
2023-05-14T03:01:13.199Z,15.74
2023-05-14T03:03:42.628Z,15.78
2023-05-14T03:06:10.960Z,15.31
2023-05-14T03:08:38.648Z,15.52
2023-05-14T03:11:06.948Z,15.64
2023-05-14T03:13:34.624Z,15.18
2023-05-14T03:16:02.345Z,15.62
2023-05-14T03:18:30.754Z,15.27
2023-05-14T03:20:59.908Z,15.34
2023-05-14T03:23:27.878Z,15.42
2023-05-14T03:25:55.666Z,15.44
2023-05-14T03:28:23.351Z,15.41
2023-05-14T03:30:51.097Z,15.58
2023-05-14T03:33:18.921Z,15.71
2023-05-14T03:35:46.609Z,15.56
2023-05-14T03:38:15.710Z,15.54
2023-05-14T03:40:43.586Z,15.44
2023-05-14T03:43:11.316Z,15.21
2023-05-14T03:45:40.880Z,15.38
2023-05-14T03:48:08.743Z,15.49
2023-05-14T03:50:36.648Z,15.52
2023-05-14T03:53:04.390Z,15.77
2023-05-14T03:55:33.412Z,15.42
2023-05-14T03:58:02.016Z,15.24
2023-05-14T04:00:29.855Z,15.74
2023-05-14T04:02:57.629Z,15.36
2023-05-14T04:05:25.432Z,15.23
2023-05-14T04:07:53.539Z,15.45
2023-05-14T04:10:21.527Z,15.40
2023-05-14T04:12:50.787Z,15.61
2023-05-14T04:15:18.524Z,15.41
2023-05-14T04:17:46.288Z,15.83
2023-05-14T04:20:14.053Z,15.72
2023-05-14T04:22:41.790Z,15.63
2023-05-14T04:25:09.939Z,15.79
2023-05-14T04:27:37.682Z,15.94
2023-05-14T04:30:08.419Z,15.59
2023-05-14T04:32:36.458Z,15.80
2023-05-14T04:35:04.505Z,15.33
2023-05-14T04:37:32.989Z,15.50
2023-05-14T04:40:00.926Z,15.67
2023-05-14T04:42:28.599Z,15.82
2023-05-14T04:44:56.350Z,15.80
2023-05-14T04:47:26.521Z,15.41
2023-05-14T04:49:54.234Z,15.62
2023-05-14T04:52:21.943Z,15.43
2023-05-14T04:54:49.703Z,15.58
2023-05-14T04:57:17.494Z,15.87
2023-05-14T04:59:45.222Z,15.74
2023-05-14T05:02:12.893Z,15.71
2023-05-14T05:04:41.965Z,15.46
2023-05-14T05:07:09.730Z,15.73
2023-05-14T05:09:37.485Z,15.58
2023-05-14T05:12:05.771Z,16.06
2023-05-14T05:14:33.546Z,16.01
2023-05-14T05:17:01.330Z,16.10
2023-05-14T05:19:39.453Z,16.21
2023-05-14T05:22:11.918Z,15.91
2023-05-14T05:24:39.655Z,15.52
2023-05-14T05:27:07.379Z,15.47
2023-05-14T05:29:36.214Z,15.73
2023-05-14T05:32:04.088Z,15.96
2023-05-14T05:34:31.808Z,15.32
2023-05-14T05:36:59.611Z,15.83
2023-05-14T05:39:34.546Z,16.02
2023-05-14T05:42:02.897Z,15.99
2023-05-14T05:44:30.734Z,16.05
2023-05-14T05:46:58.566Z,15.91
2023-05-14T05:49:26.404Z,15.98
2023-05-14T05:51:54.189Z,15.89
2023-05-14T05:54:21.908Z,15.85
2023-05-14T05:56:50.981Z,16.02
2023-05-14T05:59:18.662Z,16.59
2023-05-14T06:01:46.672Z,16.47
2023-05-14T06:04:14.454Z,16.63
2023-05-14T06:06:42.408Z,16.61
2023-05-14T06:09:10.123Z,16.75
2023-05-14T06:11:37.891Z,16.54
2023-05-14T06:14:06.949Z,16.05
2023-05-14T06:16:34.795Z,16.40
2023-05-14T06:19:02.568Z,16.52
2023-05-14T06:21:30.414Z,16.49
2023-05-14T06:23:58.144Z,16.38
2023-05-14T06:26:25.996Z,16.21
2023-05-14T06:28:53.797Z,16.13
2023-05-14T06:31:22.946Z,16.36
2023-05-14T06:33:50.638Z,16.49
2023-05-14T06:36:18.373Z,16.05
2023-05-14T06:38:46.200Z,16.46
2023-05-14T06:41:14.055Z,16.31
2023-05-14T06:43:41.718Z,16.22
2023-05-14T06:46:09.419Z,16.55
2023-05-14T06:48:38.513Z,16.45
2023-05-14T06:51:06.450Z,16.89
2023-05-14T06:53:34.118Z,17.03
2023-05-14T06:56:01.828Z,16.78
2023-05-14T06:58:29.487Z,17.13
2023-05-14T07:00:57.357Z,17.75
2023-05-14T07:03:25.132Z,17.94
2023-05-14T07:05:54.294Z,18.18
2023-05-14T07:08:22.317Z,18.12
2023-05-14T07:10:50.008Z,18.00
2023-05-14T07:13:17.755Z,18.11
2023-05-14T07:15:45.466Z,18.13
2023-05-14T07:18:13.296Z,17.96
2023-05-14T07:20:41.091Z,17.75
2023-05-14T07:23:10.127Z,17.61
2023-05-14T07:25:37.827Z,18.16
2023-05-14T07:28:05.594Z,17.65
2023-05-14T07:30:33.263Z,17.58
2023-05-14T07:33:00.966Z,17.52
2023-05-14T07:35:28.729Z,17.28
2023-05-14T07:37:56.450Z,17.76
2023-05-14T07:40:26.064Z,17.93
2023-05-14T07:42:54.001Z,18.38
2023-05-14T07:45:21.698Z,17.86
2023-05-14T07:47:51.869Z,17.49
2023-05-14T07:50:20.112Z,17.86
2023-05-14T07:52:47.776Z,18.07
2023-05-14T07:55:15.576Z,18.44
2023-05-14T07:57:44.731Z,17.90
2023-05-14T08:00:13.544Z,18.17
2023-05-14T08:02:42.490Z,18.49
2023-05-14T08:05:10.817Z,18.30
2023-05-14T08:07:38.619Z,17.92
2023-05-14T08:10:08.030Z,17.92
2023-05-14T08:12:35.813Z,18.65
2023-05-14T08:15:05.815Z,18.41
2023-05-14T08:17:33.547Z,18.23
2023-05-14T08:20:01.411Z,18.79
2023-05-14T08:22:29.336Z,18.41
2023-05-14T08:24:57.085Z,18.68
2023-05-14T08:27:24.776Z,18.18
2023-05-14T08:29:52.624Z,18.27
2023-05-14T08:32:23.846Z,18.74
2023-05-14T08:34:52.533Z,19.36
2023-05-14T08:37:20.418Z,18.80
2023-05-14T08:39:48.202Z,18.33
2023-05-14T08:42:19.226Z,18.95
2023-05-14T08:44:50.393Z,18.70
2023-05-14T08:47:19.920Z,19.37
2023-05-14T08:49:53.507Z,19.19
2023-05-14T08:52:23.306Z,19.82
2023-05-14T08:54:54.007Z,19.35
2023-05-14T08:57:24.867Z,19.44
2023-05-14T08:59:52.665Z,18.97
2023-05-14T09:02:24.046Z,19.53
2023-05-14T09:04:56.752Z,20.20
2023-05-14T09:07:24.923Z,19.42
2023-05-14T09:09:53.397Z,19.50
2023-05-14T09:12:21.632Z,19.93
2023-05-14T09:14:50.698Z,19.53
2023-05-14T09:17:19.478Z,19.45
2023-05-14T09:19:49.384Z,19.40
2023-05-14T09:22:19.023Z,19.36
2023-05-14T09:24:47.362Z,18.06
2023-05-14T09:27:21.350Z,18.48
2023-05-14T09:29:49.462Z,18.70
2023-05-14T09:32:17.316Z,18.60
2023-05-14T09:34:45.049Z,19.10
2023-05-14T09:37:12.839Z,18.74
2023-05-14T09:39:41.977Z,18.96
2023-05-14T09:42:09.692Z,18.68
2023-05-14T09:44:38.121Z,18.96
2023-05-14T09:47:06.510Z,19.48
2023-05-14T09:49:35.180Z,19.87
2023-05-14T09:52:03.709Z,19.73
2023-05-14T09:54:33.106Z,19.67
2023-05-14T09:57:02.198Z,19.29
2023-05-14T09:59:29.887Z,19.52
2023-05-14T10:01:58.920Z,20.00
2023-05-14T10:04:26.879Z,19.85
2023-05-14T10:06:56.169Z,19.93
2023-05-14T10:09:26.347Z,20.11
2023-05-14T10:12:00.338Z,20.12
2023-05-14T10:14:37.543Z,20.41
2023-05-14T10:17:07.322Z,20.73
2023-05-14T10:19:36.039Z,20.82
2023-05-14T10:22:08.080Z,21.28
2023-05-14T10:24:38.796Z,20.73
2023-05-14T10:27:07.047Z,20.79
2023-05-14T10:29:38.282Z,20.74
2023-05-14T10:32:07.704Z,20.86
2023-05-14T10:34:41.237Z,20.94
2023-05-14T10:37:11.033Z,21.40
2023-05-14T10:39:46.179Z,21.60
2023-05-14T10:42:17.171Z,21.77
2023-05-14T10:44:51.385Z,21.16
2023-05-14T10:47:19.421Z,21.55
2023-05-14T10:49:50.133Z,20.84
2023-05-14T10:52:22.052Z,21.23
2023-05-14T10:54:51.854Z,21.86
2023-05-14T10:57:20.838Z,21.62
2023-05-14T10:59:53.251Z,21.10
2023-05-14T11:02:23.467Z,20.90
2023-05-14T11:04:59.259Z,20.80
2023-05-14T11:07:30.001Z,21.57
2023-05-14T11:10:02.967Z,22.30
2023-05-14T11:12:31.125Z,22.12
2023-05-14T11:15:02.303Z,21.52
2023-05-14T11:17:31.906Z,21.63
2023-05-14T11:20:00.259Z,21.37
2023-05-14T11:22:28.402Z,21.62
2023-05-14T11:24:56.280Z,22.39
2023-05-14T11:27:24.223Z,22.00
2023-05-14T11:29:52.177Z,22.34
2023-05-14T11:32:21.519Z,22.73
2023-05-14T11:34:49.220Z,22.34
2023-05-14T11:37:17.903Z,22.44
2023-05-14T11:39:49.988Z,22.38
2023-05-14T11:42:19.545Z,22.40
2023-05-14T11:44:49.016Z,23.20
2023-05-14T11:47:18.279Z,23.41
2023-05-14T11:49:47.787Z,23.37
2023-05-14T11:52:19.517Z,23.24
2023-05-14T11:54:47.793Z,22.95
2023-05-14T11:57:17.811Z,23.10
2023-05-14T11:59:46.339Z,23.09
2023-05-14T12:02:15.759Z,23.09
2023-05-14T12:04:45.463Z,23.79
2023-05-14T12:07:16.875Z,24.00
2023-05-14T12:09:49.524Z,22.88
2023-05-14T12:12:19.405Z,23.53
2023-05-14T12:14:47.340Z,23.97
2023-05-14T12:17:16.834Z,24.18
2023-05-14T12:19:45.807Z,23.97
2023-05-14T12:22:17.264Z,23.78
2023-05-14T12:24:53.466Z,23.44
2023-05-14T12:27:23.203Z,23.57
2023-05-14T12:29:53.410Z,24.23
2023-05-14T12:32:21.228Z,24.03
2023-05-14T12:34:48.985Z,23.31
2023-05-14T12:37:19.092Z,23.90
2023-05-14T12:39:46.801Z,24.73
2023-05-14T12:42:15.558Z,24.87
2023-05-14T12:44:43.511Z,24.83
2023-05-14T12:47:11.424Z,24.91
2023-05-14T12:49:39.196Z,24.79
2023-05-14T12:52:25.741Z,24.59
2023-05-14T12:54:56.400Z,25.50
2023-05-14T12:57:24.171Z,25.06
2023-05-14T12:59:51.885Z,24.94
2023-05-14T13:02:19.652Z,25.34
2023-05-14T13:04:47.340Z,25.43
2023-05-14T13:07:15.169Z,25.65
2023-05-14T13:09:42.909Z,25.54
2023-05-14T13:12:12.128Z,26.27
2023-05-14T13:14:39.841Z,25.00
2023-05-14T13:17:08.205Z,25.01
2023-05-14T13:19:36.079Z,24.81
2023-05-14T13:22:03.840Z,24.38
2023-05-14T13:24:31.546Z,24.39
2023-05-14T13:26:59.442Z,24.22
2023-05-14T13:29:31.491Z,24.54
2023-05-14T13:31:59.187Z,25.62
2023-05-14T13:34:27.051Z,25.76
2023-05-14T13:36:54.780Z,24.61
2023-05-14T13:39:26.801Z,23.63
2023-05-14T13:41:56.669Z,23.83
2023-05-14T13:44:24.471Z,24.00
2023-05-14T13:46:53.950Z,24.68
2023-05-14T13:49:21.787Z,24.73
2023-05-14T13:51:49.452Z,25.46
2023-05-14T13:54:17.135Z,26.14
2023-05-14T13:56:45.054Z,25.66
2023-05-14T13:59:12.766Z,24.26
2023-05-14T14:01:40.519Z,22.91
2023-05-14T14:04:10.002Z,23.10
2023-05-14T14:06:37.751Z,24.34
2023-05-14T14:09:05.464Z,24.96
2023-05-14T14:11:33.221Z,24.41
2023-05-14T14:14:00.937Z,23.58
2023-05-14T14:16:28.726Z,24.28
2023-05-14T14:18:57.422Z,24.73
2023-05-14T14:21:26.558Z,24.94
2023-05-14T14:23:54.423Z,25.06
2023-05-14T14:26:22.352Z,24.37
2023-05-14T14:28:50.084Z,24.39
2023-05-14T14:31:18.496Z,25.25
2023-05-14T14:33:46.248Z,24.48
2023-05-14T14:36:13.995Z,23.50
2023-05-14T14:38:43.091Z,24.16
2023-05-14T14:41:10.948Z,25.47
2023-05-14T14:43:40.251Z,25.49
2023-05-14T14:46:08.738Z,25.62
2023-05-14T14:48:37.850Z,25.66
2023-05-14T14:51:06.191Z,26.37
2023-05-14T14:53:34.661Z,25.93
2023-05-14T14:56:03.883Z,25.27
2023-05-14T14:58:32.089Z,25.53
2023-05-14T15:01:00.112Z,24.71
2023-05-14T15:03:28.009Z,24.34
2023-05-14T15:05:55.875Z,24.39
2023-05-14T15:08:26.966Z,24.42
2023-05-14T15:10:54.832Z,23.57
2023-05-14T15:13:24.544Z,24.51
2023-05-14T15:15:52.951Z,24.51
2023-05-14T15:18:20.910Z,24.62
2023-05-14T15:20:48.693Z,24.30
2023-05-14T15:23:16.397Z,24.46
2023-05-14T15:25:44.283Z,23.60
2023-05-14T15:28:12.138Z,24.25
2023-05-14T15:30:41.186Z,24.51
2023-05-14T15:33:09.486Z,23.46
2023-05-14T15:35:37.595Z,24.58
2023-05-14T15:38:05.540Z,24.32
2023-05-14T15:40:34.949Z,24.08
2023-05-14T15:43:02.922Z,23.60
2023-05-14T15:45:30.704Z,23.40
2023-05-14T15:47:59.868Z,23.93
2023-05-14T15:50:27.733Z,23.85
2023-05-14T15:52:55.443Z,24.50
2023-05-14T15:55:23.230Z,23.78
2023-05-14T15:57:50.990Z,23.80
2023-05-14T16:00:19.582Z,23.39
2023-05-14T16:02:47.365Z,23.53
2023-05-14T16:05:16.537Z,23.46
2023-05-14T16:07:44.365Z,23.69
2023-05-14T16:10:12.428Z,23.38
2023-05-14T16:12:40.188Z,23.76
2023-05-14T16:15:08.939Z,23.74
2023-05-14T16:17:36.725Z,24.38
2023-05-14T16:20:05.798Z,24.28
2023-05-14T16:22:36.225Z,24.59
2023-05-14T16:25:04.801Z,24.26
2023-05-14T16:27:32.778Z,23.92
2023-05-14T16:30:00.458Z,23.39
2023-05-14T16:32:28.214Z,23.61
2023-05-14T16:34:56.529Z,23.87
2023-05-14T16:37:24.422Z,23.75
2023-05-14T16:39:53.565Z,23.44
2023-05-14T16:42:21.428Z,22.74
2023-05-14T16:44:49.137Z,22.43
2023-05-14T16:47:16.891Z,22.57
2023-05-14T16:49:44.588Z,22.32
2023-05-14T16:52:12.309Z,22.56
2023-05-14T16:54:40.053Z,21.73
2023-05-14T16:57:09.170Z,21.79
2023-05-14T16:59:36.909Z,21.91
2023-05-14T17:02:04.833Z,21.26
2023-05-14T17:04:33.439Z,21.48
2023-05-14T17:07:01.657Z,21.39
2023-05-14T17:09:29.334Z,21.37
2023-05-14T17:11:57.036Z,21.13
2023-05-14T17:14:26.263Z,21.16
2023-05-14T17:16:54.769Z,21.22
2023-05-14T17:19:22.557Z,21.03
2023-05-14T17:21:50.307Z,21.49
2023-05-14T17:24:18.016Z,21.19
2023-05-14T17:26:45.761Z,21.33
2023-05-14T17:29:13.504Z,21.13
2023-05-14T17:31:43.102Z,20.79
2023-05-14T17:34:10.793Z,21.58
2023-05-14T17:36:38.498Z,21.50
2023-05-14T17:39:06.228Z,21.11
2023-05-14T17:41:33.986Z,20.98
2023-05-14T17:44:01.746Z,20.53
2023-05-14T17:46:29.539Z,20.82
2023-05-14T17:48:58.884Z,20.78
2023-05-14T17:51:26.559Z,20.87
2023-05-14T17:53:54.320Z,20.87
2023-05-14T17:56:22.088Z,20.86
2023-05-14T17:58:50.712Z,20.88
2023-05-14T18:01:19.026Z,21.21
2023-05-14T18:03:46.871Z,21.31
2023-05-14T18:06:16.809Z,21.44
2023-05-14T18:08:44.609Z,21.49
2023-05-14T18:11:12.345Z,21.08
2023-05-14T18:13:40.230Z,20.59
2023-05-14T18:16:08.753Z,20.68
2023-05-14T18:18:36.596Z,20.86
2023-05-14T18:21:04.497Z,20.50
2023-05-14T18:23:33.765Z,20.66
2023-05-14T18:26:01.464Z,20.75
2023-05-14T18:28:29.350Z,20.77
2023-05-14T18:30:57.133Z,20.92
2023-05-14T18:33:24.870Z,20.65
2023-05-14T18:35:53.469Z,20.38
2023-05-14T18:38:21.150Z,20.60
2023-05-14T18:40:50.416Z,20.28
2023-05-14T18:43:18.654Z,20.22
2023-05-14T18:45:47.849Z,20.02
2023-05-14T18:48:16.178Z,20.21
2023-05-14T18:50:43.964Z,19.77
2023-05-14T18:53:11.711Z,19.32
2023-05-14T18:55:39.521Z,19.67
2023-05-14T18:58:09.170Z,19.57
2023-05-14T19:00:36.900Z,19.77
2023-05-14T19:03:04.940Z,19.75
2023-05-14T19:05:32.807Z,19.81
2023-05-14T19:08:00.900Z,19.73
2023-05-14T19:10:28.748Z,19.45
2023-05-14T19:12:56.492Z,19.69
2023-05-14T19:15:26.135Z,19.59
2023-05-14T19:17:54.379Z,19.10
2023-05-14T19:20:22.107Z,19.06
2023-05-14T19:22:49.795Z,19.34
2023-05-14T19:25:17.607Z,19.09
2023-05-14T19:27:47.633Z,19.36
2023-05-14T19:30:15.783Z,19.00
2023-05-14T19:32:44.859Z,18.81
2023-05-14T19:35:12.676Z,19.06
2023-05-14T19:37:40.405Z,18.85
2023-05-14T19:40:09.158Z,18.91
2023-05-14T19:42:36.815Z,18.63
2023-05-14T19:45:04.956Z,18.24
2023-05-14T19:47:33.126Z,18.44
2023-05-14T19:50:02.218Z,18.43
2023-05-14T19:52:29.879Z,18.83
2023-05-14T19:54:57.609Z,18.91
2023-05-14T19:57:26.560Z,19.06
2023-05-14T19:59:54.304Z,18.86
2023-05-14T20:02:22.713Z,18.77
2023-05-14T20:04:50.511Z,18.60
2023-05-14T20:07:20.161Z,18.58
2023-05-14T20:09:47.919Z,18.66
2023-05-14T20:12:16.766Z,18.67
2023-05-14T20:14:44.827Z,18.43
2023-05-14T20:17:12.781Z,18.40
2023-05-14T20:19:41.223Z,18.16
2023-05-14T20:22:08.973Z,18.35
2023-05-14T20:24:38.526Z,18.35
2023-05-14T20:27:06.623Z,18.42
2023-05-14T20:29:34.490Z,18.19
2023-05-14T20:32:02.317Z,17.81
2023-05-14T20:34:30.090Z,17.51
2023-05-14T20:36:58.110Z,17.61
2023-05-14T20:39:25.885Z,17.19
2023-05-14T20:41:54.982Z,17.46
2023-05-14T20:44:22.668Z,17.70
2023-05-14T20:46:50.506Z,17.68
2023-05-14T20:49:18.361Z,17.55
2023-05-14T20:51:46.064Z,17.40
2023-05-14T20:54:13.749Z,17.41
2023-05-14T20:56:41.496Z,17.39
2023-05-14T20:59:10.606Z,17.26
2023-05-14T21:01:38.491Z,17.12
2023-05-14T21:04:06.352Z,17.43
2023-05-14T21:06:34.136Z,17.38
2023-05-14T21:09:01.892Z,17.39
2023-05-14T21:11:29.617Z,17.43
2023-05-14T21:13:57.293Z,17.45
2023-05-14T21:16:26.563Z,17.32
2023-05-14T21:18:54.401Z,17.28
2023-05-14T21:21:22.169Z,17.28
2023-05-14T21:23:50.320Z,17.22
2023-05-14T21:26:18.061Z,16.89
2023-05-14T21:28:45.733Z,16.98
2023-05-14T21:31:13.520Z,17.16
2023-05-14T21:33:42.570Z,17.06
2023-05-14T21:36:10.841Z,17.01
2023-05-14T21:38:38.715Z,16.99
2023-05-14T21:41:06.509Z,17.11
2023-05-14T21:43:34.517Z,16.53
2023-05-14T21:46:02.249Z,16.36
2023-05-14T21:48:30.052Z,16.57
2023-05-14T21:50:59.248Z,16.36
2023-05-14T21:53:27.003Z,16.24
2023-05-14T21:55:55.252Z,16.35
2023-05-14T21:58:23.044Z,16.48
2023-05-14T22:00:50.828Z,16.16
2023-05-14T22:03:18.687Z,16.05
2023-05-14T22:05:46.411Z,16.03
2023-05-14T22:08:17.344Z,16.19
2023-05-14T22:10:45.436Z,15.67
2023-05-14T22:13:13.216Z,15.39
2023-05-14T22:15:40.959Z,15.97
2023-05-14T22:18:08.858Z,15.41
2023-05-14T22:20:36.623Z,14.58
2023-05-14T22:23:04.397Z,14.58
2023-05-14T22:25:33.491Z,14.45
2023-05-14T22:28:01.202Z,14.43
2023-05-14T22:30:28.866Z,14.48
2023-05-14T22:32:56.723Z,14.84
2023-05-14T22:35:24.574Z,14.89
2023-05-14T22:37:52.548Z,14.55
2023-05-14T22:40:20.411Z,14.93
2023-05-14T22:42:49.477Z,14.86
2023-05-14T22:45:17.310Z,14.88
2023-05-14T22:47:45.060Z,15.02
2023-05-14T22:50:12.772Z,14.96
2023-05-14T22:52:41.212Z,14.67
2023-05-14T22:55:09.693Z,14.82
2023-05-14T22:57:37.498Z,15.14
2023-05-14T23:00:09.107Z,15.17
2023-05-14T23:02:36.925Z,15.08
2023-05-14T23:05:05.074Z,15.28
2023-05-14T23:07:32.750Z,15.16
2023-05-14T23:10:00.515Z,15.05
2023-05-14T23:12:28.266Z,14.88
2023-05-14T23:14:56.030Z,15.01
2023-05-14T23:17:25.148Z,15.22
2023-05-14T23:19:53.071Z,15.12
2023-05-14T23:22:20.814Z,14.85
2023-05-14T23:24:48.536Z,14.86
2023-05-14T23:27:16.427Z,15.16
2023-05-14T23:29:44.113Z,15.23
2023-05-14T23:32:12.023Z,15.51
2023-05-14T23:34:41.170Z,15.00
2023-05-14T23:37:09.078Z,14.96
2023-05-14T23:39:37.107Z,14.70
2023-05-14T23:42:04.967Z,14.72
2023-05-14T23:44:32.643Z,14.76
2023-05-14T23:47:00.597Z,14.63
2023-05-14T23:49:28.353Z,14.89
2023-05-14T23:51:57.630Z,14.93
2023-05-14T23:54:25.410Z,15.09
2023-05-14T23:56:53.400Z,15.09
2023-05-14T23:59:21.497Z,14.56
